Create Tblcommutelog Verified Points Advance Search
| # | Trip ID | Id Commuter | Trip Date | Trip Num | Current Lat | Current Lng | Delta Distance | Current Time | Activity | Activity Confidence | Current Speed | |
|---|---|---|---|---|---|---|---|---|---|---|---|---|
| 71421 | 250624_679555_16500693_0850 | 679555 | (not set) | (not set) | 38.806630051957 | -77.061603757407 | 5.1656 | 2025-06-24 13:05:16.493 | in_vehicle | 100 | 4.407807093619 | |
| 71422 | 250624_783145_6419315_0833 | 783145 | (not set) | (not set) | 39.112848865544 | -77.060670812506 | 17.331 | 2025-06-24 13:05:18.252 | in_vehicle | 100 | 12.485806503527 | |
| 71423 | 250624_783320_6461772_0845 | 783320 | (not set) | (not set) | 38.901483794894 | -77.041772175257 | 7.2359 | 2025-06-24 13:05:19.502 | on_foot | 100 | -0.44703925898772 | |
| 71424 | 250624_673172_16462601_0812 | 673172 | (not set) | (not set) | 39.021697747575 | -77.10274151838 | 17.7279 | 2025-06-24 13:05:20.201 | in_vehicle | 100 | 10.724471823116 | |
| 71425 | 250624_781766_16459526_0803 | 781766 | (not set) | (not set) | 38.8861251 | -77.1179926 | 24.9774 | 2025-06-24 13:05:20.473 | in_vehicle | 100 | 11.819718007635 | |
| 71426 | 250624_781475_6438355_0808 | 781475 | (not set) | (not set) | 38.936499163901 | -77.059108403978 | 15.0293 | 2025-06-24 13:05:25.193 | in_vehicle | 100 | 3.3796167979472 | |
| 71427 | 250624_777261_16513230_0857 | 777261 | (not set) | (not set) | 38.98975041302 | -76.928466820082 | 1.1836 | 2025-06-24 13:05:26.293 | on_bicycle | 100 | 2.3961304281742 | |
| 71428 | 250624_753586_16500033_0837 | 753586 | (not set) | (not set) | 38.912628925449 | -77.008719983993 | 2.5271 | 2025-06-24 13:05:26.538 | in_vehicle | 100 | 0 | |
| 71429 | 250624_753586_16500033_0837 | 753586 | (not set) | (not set) | 38.912628925449 | -77.008719983993 | 2.5271 | 2025-06-24 13:05:26.546 | in_vehicle | 100 | 0 | |
| 71430 | 250624_753586_16500033_0837 | 753586 | (not set) | (not set) | 38.912623276807 | -77.008705760441 | 2.5271 | 2025-06-24 13:05:26.557 | in_vehicle | 100 | -0.44703925898772 | |
| 71431 | 250624_753586_16500033_0837 | 753586 | (not set) | (not set) | 38.912378712764 | -77.008849976175 | 2.5457 | 2025-06-24 13:05:27.234 | in_vehicle | 100 | -0.44703925898772 | |
| 71432 | 250624_780856_6461772_0837 | 780856 | (not set) | (not set) | 38.90244965372 | -77.061026484357 | 6.1999 | 2025-06-24 13:05:27.298 | on_bicycle | 100 | 3.2991497313294 | |
| 71433 | 250624_775339_16505279_0852 | 775339 | (not set) | (not set) | 38.953258056697 | -77.369401405933 | 6.0939 | 2025-06-24 13:05:27.338 | in_vehicle | 100 | 6.7190000625855 | |
| 71434 | 250624_780745_16421763_0747 | 780745 | (not set) | (not set) | 38.891801099519 | -77.062385140309 | 39.13 | 2025-06-24 13:05:27.513 | in_vehicle | 100 | 1.0460718660313 | |
| 71435 | 250624_717906_16458866_0816 | 717906 | (not set) | (not set) | 38.901341232288 | -77.037530548973 | 7.783 | 2025-06-24 13:05:28.299 | in_vehicle | 100 | 4.8637871377864 | |
| 71436 | 250624_679555_16500693_0850 | 679555 | (not set) | (not set) | 38.807473592966 | -77.060167467633 | 5.2626 | 2025-06-24 13:05:29.228 | in_vehicle | 100 | 6.1110266703622 | |
| 71437 | 250624_781273_16424909_0842 | 781273 | (not set) | (not set) | 38.960070798729 | -77.085441951712 | 2.357 | 2025-06-24 13:05:29.358 | in_vehicle | 100 | -0.44703925898772 | |
| 71438 | 250624_781273_16424909_0842 | 781273 | (not set) | (not set) | 38.960070798729 | -77.085441951712 | 2.357 | 2025-06-24 13:05:29.373 | in_vehicle | 100 | -0.44703925898772 | |
| 71439 | 250624_766126_6452825_0855 | 766126 | (not set) | (not set) | 38.988273898126 | -76.935145808266 | 3.0231 | 2025-06-24 13:05:30.223 | on_foot | 100 | 0.47833200711687 | |
| 71440 | 250624_766126_6452825_0855 | 766126 | (not set) | (not set) | 38.988283992262 | -76.935139248296 | 3.0231 | 2025-06-24 13:05:31.115 | on_foot | 100 | 0.4515096515776 |